sensor_id;sensor_type;location;lat;lon;timestamp;P1;durP1;ratioP1;P2;durP2;ratioP2
12445;SDS011;6287;50.984;7.022;2022-12-07T00:01:42;15.67;;;9.67;;
12445;SDS011;6287;50.984;7.022;2022-12-07T00:04:12;15.67;;;10.00;;
12445;SDS011;6287;50.984;7.022;2022-12-07T00:06:41;16.97;;;9.40;;
12445;SDS011;6287;50.984;7.022;2022-12-07T00:09:10;20.10;;;10.37;;
12445;SDS011;6287;50.984;7.022;2022-12-07T00:11:41;17.20;;;9.87;;
12445;SDS011;6287;50.984;7.022;2022-12-07T00:14:09;14.63;;;9.20;;
12445;SDS011;6287;50.984;7.022;2022-12-07T00:16:40;17.40;;;9.43;;
12445;SDS011;6287;50.984;7.022;2022-12-07T00:19:05;13.70;;;9.23;;
12445;SDS011;6287;50.984;7.022;2022-12-07T00:21:32;16.77;;;9.33;;
12445;SDS011;6287;50.984;7.022;2022-12-07T00:24:02;17.90;;;9.67;;
12445;SDS011;6287;50.984;7.022;2022-12-07T00:26:30;18.37;;;9.53;;
12445;SDS011;6287;50.984;7.022;2022-12-07T00:29:00;16.13;;;10.00;;
12445;SDS011;6287;50.984;7.022;2022-12-07T00:31:33;16.37;;;9.63;;
12445;SDS011;6287;50.984;7.022;2022-12-07T00:34:07;15.70;;;8.97;;
12445;SDS011;6287;50.984;7.022;2022-12-07T00:36:39;16.57;;;9.27;;
12445;SDS011;6287;50.984;7.022;2022-12-07T00:39:04;17.73;;;9.37;;
12445;SDS011;6287;50.984;7.022;2022-12-07T00:41:30;18.23;;;9.47;;
12445;SDS011;6287;50.984;7.022;2022-12-07T00:43:56;18.00;;;9.47;;
12445;SDS011;6287;50.984;7.022;2022-12-07T00:46:22;14.50;;;9.63;;
12445;SDS011;6287;50.984;7.022;2022-12-07T00:48:52;14.77;;;9.63;;
12445;SDS011;6287;50.984;7.022;2022-12-07T00:51:19;19.33;;;9.97;;
12445;SDS011;6287;50.984;7.022;2022-12-07T00:53:49;17.33;;;9.90;;
12445;SDS011;6287;50.984;7.022;2022-12-07T00:56:16;16.77;;;9.90;;
12445;SDS011;6287;50.984;7.022;2022-12-07T00:58:44;16.57;;;9.80;;
12445;SDS011;6287;50.984;7.022;2022-12-07T01:01:19;14.77;;;9.03;;
12445;SDS011;6287;50.984;7.022;2022-12-07T01:03:47;16.37;;;8.73;;
12445;SDS011;6287;50.984;7.022;2022-12-07T01:06:16;13.03;;;9.03;;
12445;SDS011;6287;50.984;7.022;2022-12-07T01:08:43;16.77;;;9.20;;
12445;SDS011;6287;50.984;7.022;2022-12-07T01:11:09;19.40;;;9.93;;
12445;SDS011;6287;50.984;7.022;2022-12-07T01:13:39;16.00;;;9.80;;
12445;SDS011;6287;50.984;7.022;2022-12-07T01:16:06;16.80;;;8.90;;
12445;SDS011;6287;50.984;7.022;2022-12-07T01:18:35;14.10;;;8.63;;
12445;SDS011;6287;50.984;7.022;2022-12-07T01:21:02;16.50;;;8.93;;
12445;SDS011;6287;50.984;7.022;2022-12-07T01:23:36;14.23;;;9.40;;
12445;SDS011;6287;50.984;7.022;2022-12-07T01:26:05;13.53;;;8.70;;
12445;SDS011;6287;50.984;7.022;2022-12-07T01:28:34;15.73;;;9.23;;
12445;SDS011;6287;50.984;7.022;2022-12-07T01:31:03;19.03;;;10.50;;
12445;SDS011;6287;50.984;7.022;2022-12-07T01:33:29;15.23;;;9.20;;
12445;SDS011;6287;50.984;7.022;2022-12-07T01:36:05;19.60;;;10.00;;
12445;SDS011;6287;50.984;7.022;2022-12-07T01:38:31;15.47;;;9.87;;
12445;SDS011;6287;50.984;7.022;2022-12-07T01:40:58;16.50;;;10.67;;
12445;SDS011;6287;50.984;7.022;2022-12-07T01:43:28;19.20;;;10.90;;
12445;SDS011;6287;50.984;7.022;2022-12-07T01:45:57;17.13;;;10.03;;
12445;SDS011;6287;50.984;7.022;2022-12-07T01:48:25;18.47;;;11.47;;
12445;SDS011;6287;50.984;7.022;2022-12-07T01:51:14;17.90;;;10.77;;
12445;SDS011;6287;50.984;7.022;2022-12-07T01:53:42;17.47;;;10.40;;
12445;SDS011;6287;50.984;7.022;2022-12-07T01:56:10;22.87;;;11.30;;
12445;SDS011;6287;50.984;7.022;2022-12-07T01:58:42;19.50;;;11.53;;
12445;SDS011;6287;50.984;7.022;2022-12-07T02:01:08;17.00;;;10.07;;
12445;SDS011;6287;50.984;7.022;2022-12-07T02:03:41;18.07;;;9.97;;
12445;SDS011;6287;50.984;7.022;2022-12-07T02:06:08;18.00;;;10.77;;
12445;SDS011;6287;50.984;7.022;2022-12-07T02:08:36;19.37;;;11.03;;
12445;SDS011;6287;50.984;7.022;2022-12-07T02:11:02;17.13;;;10.43;;
12445;SDS011;6287;50.984;7.022;2022-12-07T02:13:32;18.93;;;10.53;;
12445;SDS011;6287;50.984;7.022;2022-12-07T02:21:27;19.37;;;10.27;;
12445;SDS011;6287;50.984;7.022;2022-12-07T02:24:23;16.90;;;10.07;;
12445;SDS011;6287;50.984;7.022;2022-12-07T02:32:30;14.83;;;9.43;;
12445;SDS011;6287;50.984;7.022;2022-12-07T02:35:05;16.90;;;10.77;;
12445;SDS011;6287;50.984;7.022;2022-12-07T02:40:07;18.63;;;10.23;;
12445;SDS011;6287;50.984;7.022;2022-12-07T02:42:58;18.30;;;10.23;;
12445;SDS011;6287;50.984;7.022;2022-12-07T02:45:42;18.57;;;10.17;;
12445;SDS011;6287;50.984;7.022;2022-12-07T02:48:13;16.83;;;9.70;;
12445;SDS011;6287;50.984;7.022;2022-12-07T02:50:59;16.57;;;10.03;;
12445;SDS011;6287;50.984;7.022;2022-12-07T02:53:30;19.90;;;10.77;;
12445;SDS011;6287;50.984;7.022;2022-12-07T02:59:25;18.20;;;10.03;;
12445;SDS011;6287;50.984;7.022;2022-12-07T03:04:45;21.33;;;11.33;;
12445;SDS011;6287;50.984;7.022;2022-12-07T03:10:54;19.90;;;10.60;;
12445;SDS011;6287;50.984;7.022;2022-12-07T03:18:29;19.10;;;10.83;;
12445;SDS011;6287;50.984;7.022;2022-12-07T03:21:01;19.63;;;11.53;;
12445;SDS011;6287;50.984;7.022;2022-12-07T03:23:33;22.33;;;11.90;;
12445;SDS011;6287;50.984;7.022;2022-12-07T03:26:02;17.17;;;10.90;;
12445;SDS011;6287;50.984;7.022;2022-12-07T03:28:31;17.40;;;11.17;;
12445;SDS011;6287;50.984;7.022;2022-12-07T03:31:07;20.27;;;11.10;;
12445;SDS011;6287;50.984;7.022;2022-12-07T03:36:22;20.23;;;11.70;;
12445;SDS011;6287;50.984;7.022;2022-12-07T03:39:15;22.20;;;12.57;;
12445;SDS011;6287;50.984;7.022;2022-12-07T03:41:45;22.23;;;11.67;;
12445;SDS011;6287;50.984;7.022;2022-12-07T03:44:11;21.57;;;12.47;;
12445;SDS011;6287;50.984;7.022;2022-12-07T03:46:42;19.80;;;11.77;;
12445;SDS011;6287;50.984;7.022;2022-12-07T03:54:41;19.60;;;10.80;;
12445;SDS011;6287;50.984;7.022;2022-12-07T03:57:21;19.30;;;11.77;;
12445;SDS011;6287;50.984;7.022;2022-12-07T03:59:50;21.70;;;11.47;;
12445;SDS011;6287;50.984;7.022;2022-12-07T04:02:18;20.27;;;11.20;;
12445;SDS011;6287;50.984;7.022;2022-12-07T04:04:47;23.23;;;12.63;;
12445;SDS011;6287;50.984;7.022;2022-12-07T04:07:15;20.37;;;11.67;;
12445;SDS011;6287;50.984;7.022;2022-12-07T04:09:40;22.00;;;11.23;;
12445;SDS011;6287;50.984;7.022;2022-12-07T04:12:06;22.13;;;12.43;;
12445;SDS011;6287;50.984;7.022;2022-12-07T04:14:34;23.57;;;11.43;;
12445;SDS011;6287;50.984;7.022;2022-12-07T04:17:00;21.40;;;11.00;;
12445;SDS011;6287;50.984;7.022;2022-12-07T04:19:27;20.90;;;11.80;;
12445;SDS011;6287;50.984;7.022;2022-12-07T04:21:57;21.67;;;11.87;;
12445;SDS011;6287;50.984;7.022;2022-12-07T04:24:23;18.53;;;11.50;;
12445;SDS011;6287;50.984;7.022;2022-12-07T04:26:51;21.30;;;12.03;;
12445;SDS011;6287;50.984;7.022;2022-12-07T04:29:17;21.07;;;11.93;;
12445;SDS011;6287;50.984;7.022;2022-12-07T04:31:43;21.33;;;11.43;;
12445;SDS011;6287;50.984;7.022;2022-12-07T04:34:10;24.27;;;12.80;;
12445;SDS011;6287;50.984;7.022;2022-12-07T04:36:36;22.67;;;12.40;;
12445;SDS011;6287;50.984;7.022;2022-12-07T04:39:06;18.83;;;12.30;;
12445;SDS011;6287;50.984;7.022;2022-12-07T04:41:32;20.13;;;11.70;;
12445;SDS011;6287;50.984;7.022;2022-12-07T04:43:59;20.00;;;11.23;;
12445;SDS011;6287;50.984;7.022;2022-12-07T04:46:27;21.37;;;12.27;;
12445;SDS011;6287;50.984;7.022;2022-12-07T04:48:54;20.50;;;10.90;;
12445;SDS011;6287;50.984;7.022;2022-12-07T04:51:21;24.30;;;12.73;;
12445;SDS011;6287;50.984;7.022;2022-12-07T04:53:48;20.47;;;11.97;;
12445;SDS011;6287;50.984;7.022;2022-12-07T04:56:18;21.83;;;11.80;;
12445;SDS011;6287;50.984;7.022;2022-12-07T04:58:45;23.97;;;12.37;;
12445;SDS011;6287;50.984;7.022;2022-12-07T05:01:12;19.43;;;11.63;;
12445;SDS011;6287;50.984;7.022;2022-12-07T05:03:41;23.10;;;11.77;;
12445;SDS011;6287;50.984;7.022;2022-12-07T05:06:07;22.63;;;11.77;;
12445;SDS011;6287;50.984;7.022;2022-12-07T05:08:38;23.20;;;12.30;;
12445;SDS011;6287;50.984;7.022;2022-12-07T05:11:05;20.67;;;11.63;;
12445;SDS011;6287;50.984;7.022;2022-12-07T05:13:31;19.77;;;11.53;;
12445;SDS011;6287;50.984;7.022;2022-12-07T05:15:58;22.63;;;12.60;;
12445;SDS011;6287;50.984;7.022;2022-12-07T05:18:23;21.77;;;11.80;;
12445;SDS011;6287;50.984;7.022;2022-12-07T05:20:51;25.60;;;13.00;;
12445;SDS011;6287;50.984;7.022;2022-12-07T05:23:19;23.00;;;12.33;;
12445;SDS011;6287;50.984;7.022;2022-12-07T05:25:47;22.77;;;13.07;;
12445;SDS011;6287;50.984;7.022;2022-12-07T05:28:17;22.37;;;11.57;;
12445;SDS011;6287;50.984;7.022;2022-12-07T05:30:45;23.40;;;12.77;;
12445;SDS011;6287;50.984;7.022;2022-12-07T05:33:11;19.93;;;11.60;;
12445;SDS011;6287;50.984;7.022;2022-12-07T05:35:38;21.47;;;12.10;;
12445;SDS011;6287;50.984;7.022;2022-12-07T05:38:05;22.03;;;12.20;;
12445;SDS011;6287;50.984;7.022;2022-12-07T05:40:30;21.60;;;12.70;;
12445;SDS011;6287;50.984;7.022;2022-12-07T05:42:56;21.57;;;12.47;;
12445;SDS011;6287;50.984;7.022;2022-12-07T05:45:22;25.27;;;13.10;;
12445;SDS011;6287;50.984;7.022;2022-12-07T05:47:47;21.93;;;13.23;;
12445;SDS011;6287;50.984;7.022;2022-12-07T05:50:15;28.10;;;13.23;;
12445;SDS011;6287;50.984;7.022;2022-12-07T05:52:40;21.53;;;11.47;;
12445;SDS011;6287;50.984;7.022;2022-12-07T05:55:06;19.13;;;11.20;;
12445;SDS011;6287;50.984;7.022;2022-12-07T05:57:32;22.73;;;11.87;;
12445;SDS011;6287;50.984;7.022;2022-12-07T05:59:57;21.47;;;11.60;;
12445;SDS011;6287;50.984;7.022;2022-12-07T06:02:23;20.33;;;10.80;;
12445;SDS011;6287;50.984;7.022;2022-12-07T06:04:48;19.70;;;10.87;;
12445;SDS011;6287;50.984;7.022;2022-12-07T06:07:15;18.33;;;11.10;;
12445;SDS011;6287;50.984;7.022;2022-12-07T06:09:43;17.30;;;10.70;;
12445;SDS011;6287;50.984;7.022;2022-12-07T06:12:12;21.80;;;11.77;;
12445;SDS011;6287;50.984;7.022;2022-12-07T06:14:57;23.00;;;11.60;;
12445;SDS011;6287;50.984;7.022;2022-12-07T06:17:23;17.67;;;11.43;;
12445;SDS011;6287;50.984;7.022;2022-12-07T06:19:53;18.97;;;11.23;;
12445;SDS011;6287;50.984;7.022;2022-12-07T06:22:21;21.57;;;12.00;;
12445;SDS011;6287;50.984;7.022;2022-12-07T06:24:49;17.50;;;11.03;;
12445;SDS011;6287;50.984;7.022;2022-12-07T06:27:19;16.47;;;9.37;;
12445;SDS011;6287;50.984;7.022;2022-12-07T06:29:45;19.33;;;9.97;;
12445;SDS011;6287;50.984;7.022;2022-12-07T06:32:11;15.20;;;8.97;;
12445;SDS011;6287;50.984;7.022;2022-12-07T06:34:37;16.70;;;10.17;;
12445;SDS011;6287;50.984;7.022;2022-12-07T06:37:02;16.27;;;9.93;;
12445;SDS011;6287;50.984;7.022;2022-12-07T06:39:28;16.10;;;9.60;;
12445;SDS011;6287;50.984;7.022;2022-12-07T06:41:54;15.33;;;9.77;;
12445;SDS011;6287;50.984;7.022;2022-12-07T06:44:20;16.60;;;10.00;;
12445;SDS011;6287;50.984;7.022;2022-12-07T06:46:47;17.57;;;9.73;;
12445;SDS011;6287;50.984;7.022;2022-12-07T06:49:15;16.67;;;10.10;;
12445;SDS011;6287;50.984;7.022;2022-12-07T06:51:41;15.13;;;8.80;;
12445;SDS011;6287;50.984;7.022;2022-12-07T06:54:08;16.67;;;9.87;;
12445;SDS011;6287;50.984;7.022;2022-12-07T06:56:34;17.67;;;9.97;;
12445;SDS011;6287;50.984;7.022;2022-12-07T06:59:02;16.67;;;9.87;;
12445;SDS011;6287;50.984;7.022;2022-12-07T07:01:30;18.60;;;9.43;;
12445;SDS011;6287;50.984;7.022;2022-12-07T07:04:01;16.83;;;10.17;;
12445;SDS011;6287;50.984;7.022;2022-12-07T07:06:29;18.33;;;9.90;;
12445;SDS011;6287;50.984;7.022;2022-12-07T07:08:58;17.10;;;10.53;;
12445;SDS011;6287;50.984;7.022;2022-12-07T07:11:26;15.20;;;9.83;;
12445;SDS011;6287;50.984;7.022;2022-12-07T07:13:53;19.07;;;10.20;;
12445;SDS011;6287;50.984;7.022;2022-12-07T07:16:21;14.80;;;10.20;;
12445;SDS011;6287;50.984;7.022;2022-12-07T07:18:50;15.70;;;9.97;;
12445;SDS011;6287;50.984;7.022;2022-12-07T07:21:18;16.33;;;10.20;;
12445;SDS011;6287;50.984;7.022;2022-12-07T07:23:43;15.77;;;9.67;;
12445;SDS011;6287;50.984;7.022;2022-12-07T07:26:09;19.07;;;9.97;;
12445;SDS011;6287;50.984;7.022;2022-12-07T07:28:37;16.40;;;9.73;;
12445;SDS011;6287;50.984;7.022;2022-12-07T07:31:03;20.50;;;10.50;;
12445;SDS011;6287;50.984;7.022;2022-12-07T07:33:30;15.83;;;9.23;;
12445;SDS011;6287;50.984;7.022;2022-12-07T07:35:58;15.57;;;9.70;;
12445;SDS011;6287;50.984;7.022;2022-12-07T07:38:24;17.07;;;10.10;;
12445;SDS011;6287;50.984;7.022;2022-12-07T07:40:54;17.00;;;10.63;;
12445;SDS011;6287;50.984;7.022;2022-12-07T07:43:20;16.80;;;9.33;;
12445;SDS011;6287;50.984;7.022;2022-12-07T07:45:45;17.83;;;9.80;;
12445;SDS011;6287;50.984;7.022;2022-12-07T07:48:11;14.63;;;9.43;;
12445;SDS011;6287;50.984;7.022;2022-12-07T07:50:37;18.23;;;10.70;;
12445;SDS011;6287;50.984;7.022;2022-12-07T07:53:09;19.00;;;10.33;;
12445;SDS011;6287;50.984;7.022;2022-12-07T07:55:35;15.57;;;9.90;;
12445;SDS011;6287;50.984;7.022;2022-12-07T07:58:00;18.50;;;10.53;;
12445;SDS011;6287;50.984;7.022;2022-12-07T08:00:29;17.00;;;10.53;;
12445;SDS011;6287;50.984;7.022;2022-12-07T08:02:54;22.63;;;11.47;;
12445;SDS011;6287;50.984;7.022;2022-12-07T08:05:22;17.40;;;9.93;;
12445;SDS011;6287;50.984;7.022;2022-12-07T08:07:47;19.80;;;11.27;;
12445;SDS011;6287;50.984;7.022;2022-12-07T08:10:19;14.97;;;9.93;;
12445;SDS011;6287;50.984;7.022;2022-12-07T08:12:45;17.03;;;10.60;;
12445;SDS011;6287;50.984;7.022;2022-12-07T08:15:30;18.57;;;11.27;;
12445;SDS011;6287;50.984;7.022;2022-12-07T08:17:58;19.13;;;11.17;;
12445;SDS011;6287;50.984;7.022;2022-12-07T08:20:26;18.07;;;10.87;;
12445;SDS011;6287;50.984;7.022;2022-12-07T08:22:54;20.23;;;10.93;;
12445;SDS011;6287;50.984;7.022;2022-12-07T08:25:20;20.67;;;11.60;;
12445;SDS011;6287;50.984;7.022;2022-12-07T08:27:49;17.57;;;10.80;;
12445;SDS011;6287;50.984;7.022;2022-12-07T08:30:15;18.00;;;10.77;;
12445;SDS011;6287;50.984;7.022;2022-12-07T08:32:47;17.97;;;10.53;;
12445;SDS011;6287;50.984;7.022;2022-12-07T08:35:15;18.17;;;11.80;;
12445;SDS011;6287;50.984;7.022;2022-12-07T08:37:45;20.87;;;11.33;;
12445;SDS011;6287;50.984;7.022;2022-12-07T08:40:12;18.60;;;11.23;;
12445;SDS011;6287;50.984;7.022;2022-12-07T08:42:47;19.80;;;11.77;;
12445;SDS011;6287;50.984;7.022;2022-12-07T08:45:15;17.83;;;11.37;;
12445;SDS011;6287;50.984;7.022;2022-12-07T08:47:52;19.00;;;11.20;;
12445;SDS011;6287;50.984;7.022;2022-12-07T08:50:31;22.67;;;11.13;;
12445;SDS011;6287;50.984;7.022;2022-12-07T08:53:00;19.37;;;11.37;;
12445;SDS011;6287;50.984;7.022;2022-12-07T08:55:30;16.37;;;10.97;;
12445;SDS011;6287;50.984;7.022;2022-12-07T08:57:57;20.23;;;11.03;;
12445;SDS011;6287;50.984;7.022;2022-12-07T09:00:26;17.97;;;10.87;;
12445;SDS011;6287;50.984;7.022;2022-12-07T09:02:54;17.40;;;10.70;;
12445;SDS011;6287;50.984;7.022;2022-12-07T09:05:22;14.53;;;9.73;;
12445;SDS011;6287;50.984;7.022;2022-12-07T09:07:51;13.90;;;9.27;;
12445;SDS011;6287;50.984;7.022;2022-12-07T09:10:21;17.03;;;9.13;;
12445;SDS011;6287;50.984;7.022;2022-12-07T09:12:48;15.57;;;9.77;;
12445;SDS011;6287;50.984;7.022;2022-12-07T09:15:14;16.03;;;9.50;;
12445;SDS011;6287;50.984;7.022;2022-12-07T09:17:39;15.60;;;9.53;;
12445;SDS011;6287;50.984;7.022;2022-12-07T09:20:05;16.33;;;9.57;;
12445;SDS011;6287;50.984;7.022;2022-12-07T09:22:31;14.80;;;9.30;;
12445;SDS011;6287;50.984;7.022;2022-12-07T09:25:00;16.70;;;8.63;;
12445;SDS011;6287;50.984;7.022;2022-12-07T09:27:28;10.50;;;8.10;;
12445;SDS011;6287;50.984;7.022;2022-12-07T09:29:56;18.73;;;9.57;;
12445;SDS011;6287;50.984;7.022;2022-12-07T09:32:24;11.93;;;8.37;;
12445;SDS011;6287;50.984;7.022;2022-12-07T09:34:50;15.10;;;9.00;;
12445;SDS011;6287;50.984;7.022;2022-12-07T09:37:18;16.23;;;8.03;;
12445;SDS011;6287;50.984;7.022;2022-12-07T09:39:46;11.17;;;7.27;;
12445;SDS011;6287;50.984;7.022;2022-12-07T09:45:04;13.60;;;7.50;;
12445;SDS011;6287;50.984;7.022;2022-12-07T09:47:35;14.97;;;8.10;;
12445;SDS011;6287;50.984;7.022;2022-12-07T09:50:05;13.33;;;8.03;;
12445;SDS011;6287;50.984;7.022;2022-12-07T09:52:36;12.73;;;7.90;;
12445;SDS011;6287;50.984;7.022;2022-12-07T09:55:28;13.93;;;8.13;;
12445;SDS011;6287;50.984;7.022;2022-12-07T09:57:55;11.50;;;7.80;;
12445;SDS011;6287;50.984;7.022;2022-12-07T10:00:23;11.30;;;7.93;;
12445;SDS011;6287;50.984;7.022;2022-12-07T10:02:53;12.93;;;7.67;;
12445;SDS011;6287;50.984;7.022;2022-12-07T10:05:28;11.20;;;7.40;;
12445;SDS011;6287;50.984;7.022;2022-12-07T10:07:57;12.90;;;7.40;;
12445;SDS011;6287;50.984;7.022;2022-12-07T10:10:24;11.97;;;6.43;;
12445;SDS011;6287;50.984;7.022;2022-12-07T10:18:19;9.33;;;6.27;;
12445;SDS011;6287;50.984;7.022;2022-12-07T10:20:59;10.17;;;6.93;;
12445;SDS011;6287;50.984;7.022;2022-12-07T10:23:32;13.10;;;7.00;;
12445;SDS011;6287;50.984;7.022;2022-12-07T10:25:58;9.67;;;6.67;;
12445;SDS011;6287;50.984;7.022;2022-12-07T10:28:33;11.10;;;6.03;;
12445;SDS011;6287;50.984;7.022;2022-12-07T10:31:03;10.63;;;6.93;;
12445;SDS011;6287;50.984;7.022;2022-12-07T10:36:17;9.43;;;5.37;;
12445;SDS011;6287;50.984;7.022;2022-12-07T10:38:51;10.23;;;5.83;;
12445;SDS011;6287;50.984;7.022;2022-12-07T10:41:20;10.47;;;6.97;;
12445;SDS011;6287;50.984;7.022;2022-12-07T10:43:51;8.27;;;6.40;;
12445;SDS011;6287;50.984;7.022;2022-12-07T10:51:47;11.33;;;6.20;;
12445;SDS011;6287;50.984;7.022;2022-12-07T11:08:15;9.63;;;5.43;;
12445;SDS011;6287;50.984;7.022;2022-12-07T11:35:36;9.67;;;5.10;;
12445;SDS011;6287;50.984;7.022;2022-12-07T11:39:04;9.00;;;5.00;;
12445;SDS011;6287;50.984;7.022;2022-12-07T11:41:20;7.67;;;4.67;;
12445;SDS011;6287;50.984;7.022;2022-12-07T11:43:52;8.67;;;4.90;;
12445;SDS011;6287;50.984;7.022;2022-12-07T11:46:46;7.17;;;4.23;;
12445;SDS011;6287;50.984;7.022;2022-12-07T11:49:21;12.13;;;5.30;;
12445;SDS011;6287;50.984;7.022;2022-12-07T11:52:04;7.90;;;4.30;;
12445;SDS011;6287;50.984;7.022;2022-12-07T11:54:38;8.67;;;3.97;;
12445;SDS011;6287;50.984;7.022;2022-12-07T11:57:13;6.77;;;4.03;;
12445;SDS011;6287;50.984;7.022;2022-12-07T11:59:47;6.20;;;3.80;;
12445;SDS011;6287;50.984;7.022;2022-12-07T12:02:18;4.83;;;3.83;;
12445;SDS011;6287;50.984;7.022;2022-12-07T12:04:58;5.77;;;3.87;;
12445;SDS011;6287;50.984;7.022;2022-12-07T12:07:46;6.70;;;4.00;;
12445;SDS011;6287;50.984;7.022;2022-12-07T12:16:03;5.27;;;4.00;;
12445;SDS011;6287;50.984;7.022;2022-12-07T12:21:27;4.33;;;3.60;;
12445;SDS011;6287;50.984;7.022;2022-12-07T12:23:58;7.67;;;4.30;;
12445;SDS011;6287;50.984;7.022;2022-12-07T12:26:35;6.20;;;3.93;;
12445;SDS011;6287;50.984;7.022;2022-12-07T12:29:03;10.50;;;4.80;;
12445;SDS011;6287;50.984;7.022;2022-12-07T12:31:37;8.30;;;4.30;;
12445;SDS011;6287;50.984;7.022;2022-12-07T12:34:29;6.67;;;4.20;;
12445;SDS011;6287;50.984;7.022;2022-12-07T12:42:44;8.13;;;4.40;;
12445;SDS011;6287;50.984;7.022;2022-12-07T12:45:22;7.03;;;4.23;;
12445;SDS011;6287;50.984;7.022;2022-12-07T12:47:53;8.53;;;4.20;;
12445;SDS011;6287;50.984;7.022;2022-12-07T12:50:30;9.43;;;4.33;;
12445;SDS011;6287;50.984;7.022;2022-12-07T12:53:43;7.77;;;4.13;;
12445;SDS011;6287;50.984;7.022;2022-12-07T13:15:40;9.63;;;5.03;;
12445;SDS011;6287;50.984;7.022;2022-12-07T13:23:23;9.10;;;4.70;;
12445;SDS011;6287;50.984;7.022;2022-12-07T13:28:36;9.73;;;4.67;;
12445;SDS011;6287;50.984;7.022;2022-12-07T13:33:51;11.50;;;5.77;;
12445;SDS011;6287;50.984;7.022;2022-12-07T13:36:25;7.20;;;4.73;;
12445;SDS011;6287;50.984;7.022;2022-12-07T13:39:11;9.80;;;4.70;;
12445;SDS011;6287;50.984;7.022;2022-12-07T13:41:54;9.37;;;4.97;;
12445;SDS011;6287;50.984;7.022;2022-12-07T13:44:22;8.90;;;4.53;;
12445;SDS011;6287;50.984;7.022;2022-12-07T13:49:37;12.13;;;5.63;;
12445;SDS011;6287;50.984;7.022;2022-12-07T13:52:27;9.50;;;4.73;;
12445;SDS011;6287;50.984;7.022;2022-12-07T13:54:58;8.67;;;4.87;;
12445;SDS011;6287;50.984;7.022;2022-12-07T13:57:25;8.80;;;4.97;;
12445;SDS011;6287;50.984;7.022;2022-12-07T13:59:52;12.60;;;5.57;;
12445;SDS011;6287;50.984;7.022;2022-12-07T14:02:26;11.27;;;5.33;;
12445;SDS011;6287;50.984;7.022;2022-12-07T14:07:55;7.87;;;5.47;;
12445;SDS011;6287;50.984;7.022;2022-12-07T14:10:28;7.97;;;5.23;;
12445;SDS011;6287;50.984;7.022;2022-12-07T14:12:59;10.77;;;5.23;;
12445;SDS011;6287;50.984;7.022;2022-12-07T14:15:27;6.60;;;4.73;;
12445;SDS011;6287;50.984;7.022;2022-12-07T14:17:55;7.00;;;4.70;;
12445;SDS011;6287;50.984;7.022;2022-12-07T14:23:26;9.63;;;6.07;;
12445;SDS011;6287;50.984;7.022;2022-12-07T14:25:52;11.00;;;5.77;;
12445;SDS011;6287;50.984;7.022;2022-12-07T14:28:25;11.87;;;5.47;;
12445;SDS011;6287;50.984;7.022;2022-12-07T14:30:51;10.63;;;5.47;;
12445;SDS011;6287;50.984;7.022;2022-12-07T14:33:17;9.53;;;5.40;;
12445;SDS011;6287;50.984;7.022;2022-12-07T14:35:46;7.53;;;4.57;;
12445;SDS011;6287;50.984;7.022;2022-12-07T14:38:14;9.27;;;4.93;;
12445;SDS011;6287;50.984;7.022;2022-12-07T14:40:42;7.07;;;4.57;;
12445;SDS011;6287;50.984;7.022;2022-12-07T14:43:11;8.77;;;4.87;;
12445;SDS011;6287;50.984;7.022;2022-12-07T14:45:39;9.47;;;5.00;;
12445;SDS011;6287;50.984;7.022;2022-12-07T14:48:09;8.20;;;5.03;;
12445;SDS011;6287;50.984;7.022;2022-12-07T14:50:37;11.30;;;5.70;;
12445;SDS011;6287;50.984;7.022;2022-12-07T14:55:41;8.23;;;5.60;;
12445;SDS011;6287;50.984;7.022;2022-12-07T14:58:13;12.73;;;5.07;;
12445;SDS011;6287;50.984;7.022;2022-12-07T15:00:42;8.10;;;4.80;;
12445;SDS011;6287;50.984;7.022;2022-12-07T15:03:13;11.03;;;5.90;;
12445;SDS011;6287;50.984;7.022;2022-12-07T15:05:41;10.93;;;5.50;;
12445;SDS011;6287;50.984;7.022;2022-12-07T15:08:13;11.07;;;5.63;;
12445;SDS011;6287;50.984;7.022;2022-12-07T15:10:41;8.37;;;5.27;;
12445;SDS011;6287;50.984;7.022;2022-12-07T15:13:08;10.90;;;6.03;;
12445;SDS011;6287;50.984;7.022;2022-12-07T15:15:55;10.30;;;5.33;;
12445;SDS011;6287;50.984;7.022;2022-12-07T15:18:22;12.70;;;6.60;;
12445;SDS011;6287;50.984;7.022;2022-12-07T15:20:51;9.77;;;5.83;;
12445;SDS011;6287;50.984;7.022;2022-12-07T15:23:19;10.97;;;6.60;;
12445;SDS011;6287;50.984;7.022;2022-12-07T15:25:46;10.73;;;6.60;;
12445;SDS011;6287;50.984;7.022;2022-12-07T15:28:13;8.17;;;5.47;;
12445;SDS011;6287;50.984;7.022;2022-12-07T15:30:40;6.53;;;4.63;;
12445;SDS011;6287;50.984;7.022;2022-12-07T15:33:07;6.60;;;5.00;;
12445;SDS011;6287;50.984;7.022;2022-12-07T15:35:33;7.43;;;3.33;;
12445;SDS011;6287;50.984;7.022;2022-12-07T15:37:58;5.57;;;3.50;;
12445;SDS011;6287;50.984;7.022;2022-12-07T15:40:24;4.67;;;3.07;;
12445;SDS011;6287;50.984;7.022;2022-12-07T15:42:57;5.23;;;2.40;;
12445;SDS011;6287;50.984;7.022;2022-12-07T15:45:25;2.63;;;2.20;;
12445;SDS011;6287;50.984;7.022;2022-12-07T15:47:53;5.33;;;3.47;;
12445;SDS011;6287;50.984;7.022;2022-12-07T15:50:20;5.23;;;3.17;;
12445;SDS011;6287;50.984;7.022;2022-12-07T15:52:46;4.37;;;2.37;;
12445;SDS011;6287;50.984;7.022;2022-12-07T15:55:12;2.93;;;2.50;;
12445;SDS011;6287;50.984;7.022;2022-12-07T15:57:43;3.13;;;2.20;;
12445;SDS011;6287;50.984;7.022;2022-12-07T16:00:14;3.50;;;2.30;;
12445;SDS011;6287;50.984;7.022;2022-12-07T16:02:42;3.47;;;3.17;;
12445;SDS011;6287;50.984;7.022;2022-12-07T16:05:10;4.10;;;2.43;;
12445;SDS011;6287;50.984;7.022;2022-12-07T16:07:38;6.37;;;3.00;;
12445;SDS011;6287;50.984;7.022;2022-12-07T16:10:06;3.80;;;2.83;;
12445;SDS011;6287;50.984;7.022;2022-12-07T16:12:34;3.47;;;2.83;;
12445;SDS011;6287;50.984;7.022;2022-12-07T16:14:59;5.57;;;3.13;;
12445;SDS011;6287;50.984;7.022;2022-12-07T16:17:27;4.97;;;3.87;;
12445;SDS011;6287;50.984;7.022;2022-12-07T16:19:52;5.77;;;4.07;;
12445;SDS011;6287;50.984;7.022;2022-12-07T16:22:18;4.27;;;3.73;;
12445;SDS011;6287;50.984;7.022;2022-12-07T16:24:44;7.27;;;4.77;;
12445;SDS011;6287;50.984;7.022;2022-12-07T16:27:10;5.90;;;4.40;;
12445;SDS011;6287;50.984;7.022;2022-12-07T16:29:36;7.27;;;4.40;;
12445;SDS011;6287;50.984;7.022;2022-12-07T16:32:04;9.67;;;4.97;;
12445;SDS011;6287;50.984;7.022;2022-12-07T16:34:35;6.00;;;4.83;;
12445;SDS011;6287;50.984;7.022;2022-12-07T16:37:00;10.60;;;5.83;;
12445;SDS011;6287;50.984;7.022;2022-12-07T16:39:26;6.90;;;5.10;;
12445;SDS011;6287;50.984;7.022;2022-12-07T16:41:55;7.63;;;5.20;;
12445;SDS011;6287;50.984;7.022;2022-12-07T16:44:23;6.90;;;4.90;;
12445;SDS011;6287;50.984;7.022;2022-12-07T16:46:48;7.43;;;5.00;;
12445;SDS011;6287;50.984;7.022;2022-12-07T16:49:16;8.03;;;6.03;;
12445;SDS011;6287;50.984;7.022;2022-12-07T16:51:44;17.57;;;9.43;;
12445;SDS011;6287;50.984;7.022;2022-12-07T16:54:11;14.00;;;7.90;;
12445;SDS011;6287;50.984;7.022;2022-12-07T16:56:39;13.23;;;6.33;;
12445;SDS011;6287;50.984;7.022;2022-12-07T16:59:06;11.07;;;6.53;;
12445;SDS011;6287;50.984;7.022;2022-12-07T17:01:34;7.47;;;6.07;;
12445;SDS011;6287;50.984;7.022;2022-12-07T17:04:02;11.30;;;6.80;;
12445;SDS011;6287;50.984;7.022;2022-12-07T17:06:29;12.97;;;7.93;;
12445;SDS011;6287;50.984;7.022;2022-12-07T17:08:59;8.83;;;5.67;;
12445;SDS011;6287;50.984;7.022;2022-12-07T17:11:29;10.20;;;6.13;;
12445;SDS011;6287;50.984;7.022;2022-12-07T17:13:58;8.43;;;5.83;;
12445;SDS011;6287;50.984;7.022;2022-12-07T17:16:42;13.93;;;10.57;;
12445;SDS011;6287;50.984;7.022;2022-12-07T17:19:10;14.47;;;9.30;;
12445;SDS011;6287;50.984;7.022;2022-12-07T17:21:39;23.67;;;16.47;;
12445;SDS011;6287;50.984;7.022;2022-12-07T17:24:07;33.30;;;17.37;;
12445;SDS011;6287;50.984;7.022;2022-12-07T17:26:36;23.37;;;13.60;;
12445;SDS011;6287;50.984;7.022;2022-12-07T17:29:03;14.00;;;9.47;;